createdAt,value
2023-01-08T00:00:40.098Z,77.83
2023-01-08T00:03:01.755Z,76.21
2023-01-08T00:05:23.265Z,77.09
2023-01-08T00:07:44.661Z,77.05
2023-01-08T00:10:06.575Z,77.37
2023-01-08T00:12:28.014Z,77.45
2023-01-08T00:14:49.425Z,78.26
2023-01-08T00:17:10.848Z,78.28
2023-01-08T00:19:32.351Z,79.36
2023-01-08T00:21:53.758Z,78.81
2023-01-08T00:24:15.207Z,79.24
2023-01-08T00:26:36.823Z,79.91
2023-01-08T00:28:58.266Z,79.89
2023-01-08T00:31:19.749Z,79.92
2023-01-08T00:33:41.587Z,80.29
2023-01-08T00:36:11.691Z,80.95
2023-01-08T00:38:33.128Z,80.62
2023-01-08T00:40:54.959Z,80.87
2023-01-08T00:43:16.387Z,80.18
2023-01-08T00:45:37.861Z,79.60
2023-01-08T00:47:59.902Z,78.69
2023-01-08T00:50:21.384Z,78.55
2023-01-08T00:52:42.866Z,79.19
2023-01-08T00:55:04.717Z,81.10
2023-01-08T00:57:26.157Z,81.43
2023-01-08T00:59:47.642Z,80.94
2023-01-08T01:02:09.972Z,80.52
2023-01-08T01:04:31.534Z,80.08
2023-01-08T01:06:52.989Z,80.50
2023-01-08T01:09:14.387Z,80.78
2023-01-08T01:11:35.801Z,80.35
2023-01-08T01:13:57.554Z,80.02
2023-01-08T01:16:19.039Z,79.79
2023-01-08T01:18:40.584Z,80.66
2023-01-08T01:21:02.044Z,81.42
2023-01-08T01:23:23.470Z,81.98
2023-01-08T01:25:45.880Z,83.29
2023-01-08T01:28:07.417Z,83.33
2023-01-08T01:30:28.817Z,83.50
2023-01-08T01:32:50.260Z,83.95
2023-01-08T01:35:11.762Z,83.10
2023-01-08T01:37:33.203Z,83.23
2023-01-08T01:39:56.154Z,82.35
2023-01-08T01:42:38.643Z,83.03
2023-01-08T01:45:00.223Z,82.73
2023-01-08T01:47:36.463Z,81.64
2023-01-08T01:50:01.255Z,81.88
2023-01-08T01:52:25.292Z,82.71
2023-01-08T01:54:46.695Z,83.47
2023-01-08T01:57:08.502Z,86.14
2023-01-08T01:59:29.946Z,85.84
2023-01-08T02:01:52.585Z,86.06
2023-01-08T02:04:14.563Z,84.60
2023-01-08T02:07:08.131Z,85.21
2023-01-08T02:09:43.320Z,83.56
2023-01-08T02:12:18.224Z,83.48
2023-01-08T02:15:24.159Z,84.21
2023-01-08T02:18:00.380Z,84.60
2023-01-08T02:20:40.762Z,84.53
2023-01-08T02:23:45.343Z,83.79
2023-01-08T02:26:25.215Z,83.68
2023-01-08T02:28:52.537Z,83.29
2023-01-08T02:31:16.330Z,84.10
2023-01-08T02:33:37.786Z,84.57
2023-01-08T02:36:23.963Z,84.01
2023-01-08T02:38:53.137Z,83.23
2023-01-08T02:41:17.218Z,83.03
2023-01-08T02:43:51.931Z,82.96
2023-01-08T02:46:19.109Z,82.45
2023-01-08T02:48:51.829Z,82.55
2023-01-08T02:51:24.987Z,83.15
2023-01-08T02:53:51.113Z,83.26
2023-01-08T02:56:17.684Z,82.64
2023-01-08T02:58:41.587Z,82.65
2023-01-08T03:01:06.167Z,82.41
2023-01-08T03:03:29.819Z,82.02
2023-01-08T03:05:59.013Z,83.37
2023-01-08T03:08:21.447Z,82.84
2023-01-08T03:10:49.050Z,83.66
2023-01-08T03:13:26.311Z,83.77
2023-01-08T03:15:53.421Z,83.63
2023-01-08T03:18:21.246Z,83.39
2023-01-08T03:20:45.634Z,83.72
2023-01-08T03:23:11.106Z,84.92
2023-01-08T03:25:37.101Z,84.02
2023-01-08T03:28:04.819Z,84.03
2023-01-08T03:30:29.265Z,83.63
2023-01-08T03:32:51.657Z,85.11
2023-01-08T03:35:17.911Z,85.75
2023-01-08T03:37:43.386Z,86.42
2023-01-08T03:40:16.624Z,86.31
2023-01-08T03:42:38.229Z,86.98
2023-01-08T03:45:00.716Z,87.40
2023-01-08T03:47:23.915Z,86.91
2023-01-08T03:49:46.813Z,86.18
2023-01-08T03:52:08.414Z,86.04
2023-01-08T03:54:32.891Z,86.26
2023-01-08T03:56:54.337Z,87.72
2023-01-08T03:59:16.152Z,88.89
2023-01-08T04:01:37.966Z,89.98
2023-01-08T04:03:59.520Z,90.28
2023-01-08T04:06:20.944Z,89.42
2023-01-08T04:08:42.368Z,90.14
2023-01-08T04:11:03.776Z,91.78
2023-01-08T04:13:25.187Z,92.83
2023-01-08T04:15:50.950Z,93.65
2023-01-08T04:18:12.419Z,94.40
2023-01-08T04:20:33.891Z,94.15
2023-01-08T04:22:55.324Z,93.51
2023-01-08T04:25:16.773Z,93.89
2023-01-08T04:27:38.202Z,94.33
2023-01-08T04:29:59.643Z,93.96
2023-01-08T04:32:21.159Z,93.07
2023-01-08T04:34:42.581Z,93.69
2023-01-08T04:37:04.023Z,93.26
2023-01-08T04:39:25.486Z,92.72
2023-01-08T04:41:46.894Z,92.66
2023-01-08T04:44:09.074Z,94.00
2023-01-08T04:46:30.542Z,93.94
2023-01-08T04:48:52.003Z,93.98
2023-01-08T04:51:13.536Z,93.44
2023-01-08T04:53:37.547Z,92.99
2023-01-08T04:56:07.659Z,93.85
2023-01-08T04:58:29.739Z,93.88
2023-01-08T05:00:51.165Z,94.56
2023-01-08T05:03:12.812Z,93.89
2023-01-08T05:05:34.760Z,93.67
2023-01-08T05:07:56.155Z,94.31
2023-01-08T05:10:17.539Z,95.08
2023-01-08T05:12:38.945Z,95.03
2023-01-08T05:15:00.334Z,94.92
2023-01-08T05:17:21.711Z,94.31
2023-01-08T05:19:43.103Z,94.52
2023-01-08T05:22:04.526Z,94.86
2023-01-08T05:24:25.996Z,95.66
2023-01-08T05:26:47.396Z,95.30
2023-01-08T05:29:10.308Z,95.24
2023-01-08T05:31:31.742Z,94.94
2023-01-08T05:33:53.219Z,95.21
2023-01-08T05:36:14.675Z,94.67
2023-01-08T05:38:36.276Z,95.01
2023-01-08T05:40:57.699Z,97.09
2023-01-08T05:43:19.140Z,97.44
2023-01-08T05:45:40.546Z,98.56
2023-01-08T05:48:05.377Z,98.48
2023-01-08T05:50:26.813Z,97.56
2023-01-08T05:52:48.247Z,96.53
2023-01-08T05:55:09.972Z,95.96
2023-01-08T05:57:31.377Z,96.31
2023-01-08T05:59:52.783Z,96.01
2023-01-08T06:02:14.242Z,95.94
2023-01-08T06:04:35.757Z,95.21
2023-01-08T06:06:57.215Z,95.60
2023-01-08T06:09:19.222Z,96.48
2023-01-08T06:11:40.615Z,95.66
2023-01-08T06:14:02.145Z,96.57
2023-01-08T06:16:23.663Z,96.66
2023-01-08T06:18:45.112Z,96.55
2023-01-08T06:21:06.577Z,97.15
2023-01-08T06:23:28.025Z,96.74
2023-01-08T06:25:54.349Z,97.06
2023-01-08T06:28:15.769Z,97.59
2023-01-08T06:30:37.186Z,98.21
2023-01-08T06:33:00.153Z,97.30
2023-01-08T06:35:21.561Z,96.93
2023-01-08T06:37:43.003Z,97.30
2023-01-08T06:40:04.714Z,97.43
2023-01-08T06:42:26.513Z,97.25
2023-01-08T06:44:47.952Z,97.52
2023-01-08T06:47:09.512Z,97.38
2023-01-08T06:49:30.940Z,97.37
2023-01-08T06:51:52.362Z,97.60
2023-01-08T06:54:13.917Z,97.12
2023-01-08T06:56:48.809Z,97.98
2023-01-08T06:59:14.215Z,96.73
2023-01-08T07:01:35.689Z,95.78
2023-01-08T07:03:57.124Z,96.55
2023-01-08T07:06:20.673Z,96.23
2023-01-08T07:08:42.915Z,95.26
2023-01-08T07:11:04.663Z,95.13
2023-01-08T07:13:26.071Z,95.21
2023-01-08T07:15:47.554Z,95.83
2023-01-08T07:18:11.289Z,95.61
2023-01-08T07:20:33.699Z,95.81
2023-01-08T07:22:55.111Z,97.80
2023-01-08T07:25:16.623Z,97.61
2023-01-08T07:27:38.042Z,97.32
2023-01-08T07:29:59.487Z,97.62
2023-01-08T07:32:20.918Z,97.32
2023-01-08T07:34:42.322Z,96.73
2023-01-08T07:37:04.205Z,97.67
2023-01-08T07:39:25.609Z,97.60
2023-01-08T07:41:47.012Z,96.73
2023-01-08T07:44:08.416Z,96.44
2023-01-08T07:46:29.901Z,96.95
2023-01-08T07:48:51.374Z,97.96
2023-01-08T07:51:12.788Z,98.08
2023-01-08T07:53:35.256Z,97.80
2023-01-08T07:56:08.213Z,98.38
2023-01-08T07:58:29.651Z,98.71
2023-01-08T08:00:51.064Z,98.47
2023-01-08T08:03:12.607Z,97.80
2023-01-08T08:05:34.827Z,96.81
2023-01-08T08:07:56.259Z,97.40
2023-01-08T08:10:17.762Z,96.82
2023-01-08T08:12:39.176Z,97.75
2023-01-08T08:15:00.579Z,97.18
2023-01-08T08:17:22.413Z,97.10
2023-01-08T08:19:45.494Z,96.34
2023-01-08T08:22:06.931Z,95.65
2023-01-08T08:24:28.351Z,96.42
2023-01-08T08:26:51.355Z,96.44
2023-01-08T08:29:12.807Z,95.78
2023-01-08T08:31:34.326Z,96.29
2023-01-08T08:33:55.774Z,96.76
2023-01-08T08:36:17.350Z,95.08
2023-01-08T08:38:39.875Z,94.14
2023-01-08T08:41:01.402Z,93.90
2023-01-08T08:43:22.837Z,92.40
2023-01-08T08:45:44.658Z,92.31
2023-01-08T08:48:07.636Z,92.40
2023-01-08T08:50:29.091Z,91.08
2023-01-08T08:52:50.599Z,90.43
2023-01-08T08:55:17.171Z,89.98
2023-01-08T08:57:38.655Z,89.48
2023-01-08T09:00:01.321Z,89.39
2023-01-08T09:02:23.063Z,89.56
2023-01-08T09:04:44.652Z,89.39
2023-01-08T09:07:06.169Z,89.66
2023-01-08T09:09:27.643Z,90.16
2023-01-08T09:11:49.059Z,88.83
2023-01-08T09:14:10.477Z,89.89
2023-01-08T09:16:33.245Z,89.57
2023-01-08T09:18:54.678Z,89.52
2023-01-08T09:21:16.226Z,91.26
2023-01-08T09:23:38.807Z,90.94
2023-01-08T09:26:04.579Z,91.72
2023-01-08T09:28:26.021Z,92.36
2023-01-08T09:30:47.445Z,91.17
2023-01-08T09:33:09.184Z,90.65
2023-01-08T09:35:34.086Z,90.97
2023-01-08T09:37:56.448Z,91.31
2023-01-08T09:40:18.211Z,91.01
2023-01-08T09:42:39.719Z,90.07
2023-01-08T09:45:02.159Z,90.86
2023-01-08T09:47:36.619Z,90.33
2023-01-08T09:50:04.823Z,89.86
2023-01-08T09:52:26.637Z,91.25
2023-01-08T09:54:48.149Z,91.13
2023-01-08T09:57:16.195Z,91.92
2023-01-08T09:59:38.336Z,91.17
2023-01-08T10:01:59.951Z,89.68
2023-01-08T10:04:26.212Z,89.64
2023-01-08T10:06:52.476Z,91.45
2023-01-08T10:09:15.002Z,90.56
2023-01-08T10:11:43.126Z,89.98
2023-01-08T10:14:08.973Z,89.74
2023-01-08T10:16:36.682Z,90.14
2023-01-08T10:18:59.843Z,90.89
2023-01-08T10:21:29.395Z,90.41
2023-01-08T10:23:54.111Z,90.95
2023-01-08T10:26:25.902Z,90.63
2023-01-08T10:28:47.316Z,90.46
2023-01-08T10:31:15.009Z,91.50
2023-01-08T10:33:45.224Z,91.40
2023-01-08T10:36:09.747Z,90.06
2023-01-08T10:38:34.852Z,89.48
2023-01-08T10:40:57.007Z,88.88
2023-01-08T10:43:22.364Z,88.93
2023-01-08T10:45:57.986Z,91.00
2023-01-08T10:48:19.495Z,90.29
2023-01-08T10:50:40.927Z,89.85
2023-01-08T10:53:06.280Z,89.65
2023-01-08T10:55:39.663Z,89.63
2023-01-08T10:58:04.466Z,90.78
2023-01-08T11:00:29.181Z,90.42
2023-01-08T11:02:50.885Z,90.27
2023-01-08T11:05:12.412Z,89.30
2023-01-08T11:07:37.025Z,88.80
2023-01-08T11:09:58.563Z,89.46
2023-01-08T11:12:41.735Z,89.69
2023-01-08T11:15:07.148Z,90.09
2023-01-08T11:17:29.152Z,90.85
2023-01-08T11:19:51.210Z,91.07
2023-01-08T11:22:23.262Z,90.91
2023-01-08T11:24:45.958Z,90.41
2023-01-08T11:27:16.840Z,89.84
2023-01-08T11:29:47.214Z,89.28
2023-01-08T11:32:15.824Z,88.78
2023-01-08T11:34:51.561Z,86.86
2023-01-08T11:37:26.240Z,87.62
2023-01-08T11:39:48.472Z,87.04
2023-01-08T11:42:25.761Z,87.81
2023-01-08T11:45:05.907Z,86.27
2023-01-08T11:47:53.969Z,87.29
2023-01-08T11:50:40.113Z,86.55
2023-01-08T11:53:18.021Z,85.67
2023-01-08T11:55:45.308Z,86.34
2023-01-08T11:58:49.307Z,85.56
2023-01-08T12:01:29.233Z,85.15
2023-01-08T12:04:19.894Z,85.67
2023-01-08T12:07:21.743Z,83.86
2023-01-08T12:09:56.822Z,83.80
2023-01-08T12:12:24.776Z,83.45
2023-01-08T12:15:15.385Z,84.74
2023-01-08T12:17:43.177Z,84.93
2023-01-08T12:20:20.863Z,83.34
2023-01-08T12:22:52.980Z,83.30
2023-01-08T12:25:49.640Z,82.32
2023-01-08T12:28:32.153Z,80.81
2023-01-08T12:31:12.417Z,81.57
2023-01-08T12:33:47.981Z,82.52
2023-01-08T12:36:12.744Z,84.46
2023-01-08T12:38:39.176Z,84.90
2023-01-08T12:41:07.498Z,83.10
2023-01-08T12:43:33.317Z,82.52
2023-01-08T12:45:59.568Z,80.34
2023-01-08T12:48:28.434Z,79.81
2023-01-08T12:50:56.030Z,77.73
2023-01-08T12:53:30.705Z,78.17
2023-01-08T12:56:14.172Z,78.90
2023-01-08T12:58:53.903Z,79.76
2023-01-08T13:01:30.668Z,80.73
2023-01-08T13:03:54.789Z,81.12
2023-01-08T13:06:19.524Z,80.94
2023-01-08T13:08:46.208Z,81.41
2023-01-08T13:11:08.565Z,82.04
2023-01-08T13:13:45.027Z,82.09
2023-01-08T13:16:20.286Z,82.07
2023-01-08T13:18:51.494Z,80.89
2023-01-08T13:21:14.004Z,80.56
2023-01-08T13:23:35.756Z,81.20
2023-01-08T13:25:59.701Z,81.90
2023-01-08T13:28:44.688Z,81.88
2023-01-08T13:31:27.995Z,80.68
2023-01-08T13:33:52.628Z,79.04
2023-01-08T13:36:30.398Z,80.12
2023-01-08T13:39:21.467Z,79.97
2023-01-08T13:41:56.901Z,80.08
2023-01-08T13:44:30.406Z,79.91
2023-01-08T13:46:57.711Z,81.29
2023-01-08T13:49:38.074Z,80.53
2023-01-08T13:51:59.584Z,81.00
2023-01-08T13:54:35.351Z,78.15
2023-01-08T13:57:04.418Z,77.20
2023-01-08T13:59:49.904Z,77.35
2023-01-08T14:02:25.339Z,76.46
2023-01-08T14:04:51.406Z,77.45
2023-01-08T14:07:14.193Z,78.33
2023-01-08T14:09:35.602Z,79.94
2023-01-08T14:11:57.027Z,79.32
2023-01-08T14:14:21.846Z,79.75
2023-01-08T14:16:43.878Z,80.36
2023-01-08T14:19:05.490Z,79.47
2023-01-08T14:21:27.079Z,78.33
2023-01-08T14:23:50.694Z,79.45
2023-01-08T14:26:25.559Z,80.05
2023-01-08T14:28:54.066Z,80.39
2023-01-08T14:31:22.124Z,80.70
2023-01-08T14:33:44.166Z,78.94
2023-01-08T14:36:07.946Z,77.83
2023-01-08T14:38:29.428Z,80.12
2023-01-08T14:41:00.654Z,80.71
2023-01-08T14:43:22.205Z,81.18
2023-01-08T14:45:49.684Z,81.90
2023-01-08T14:48:18.919Z,81.69
2023-01-08T14:50:43.932Z,82.00
2023-01-08T14:53:20.712Z,82.96
2023-01-08T14:55:45.390Z,82.12
2023-01-08T14:58:15.123Z,83.75
2023-01-08T15:00:37.673Z,82.26
2023-01-08T15:02:59.174Z,82.56
2023-01-08T15:05:32.974Z,82.96
2023-01-08T15:08:03.992Z,82.80
2023-01-08T15:10:39.047Z,83.04
2023-01-08T15:13:00.927Z,84.50
2023-01-08T15:15:23.880Z,84.48
2023-01-08T15:17:45.315Z,83.51
2023-01-08T15:20:16.321Z,82.92
2023-01-08T15:22:37.794Z,83.09
2023-01-08T15:25:07.110Z,83.69
2023-01-08T15:27:31.274Z,83.73
2023-01-08T15:30:01.642Z,83.78
2023-01-08T15:32:23.900Z,84.06
2023-01-08T15:34:46.337Z,84.14
2023-01-08T15:37:07.774Z,85.64
2023-01-08T15:39:29.195Z,85.80
2023-01-08T15:42:09.060Z,85.99
2023-01-08T15:44:30.487Z,85.45
2023-01-08T15:46:52.919Z,85.47
2023-01-08T15:49:14.651Z,85.42
2023-01-08T15:51:38.978Z,86.43
2023-01-08T15:54:01.960Z,85.62
2023-01-08T15:56:23.796Z,86.85
2023-01-08T15:58:45.253Z,88.12
2023-01-08T16:01:06.696Z,87.60
2023-01-08T16:03:30.362Z,87.53
2023-01-08T16:05:51.763Z,87.44
2023-01-08T16:08:13.210Z,87.19
2023-01-08T16:10:34.841Z,87.43
2023-01-08T16:12:56.372Z,86.91
2023-01-08T16:15:18.220Z,86.76
2023-01-08T16:17:40.491Z,85.96
2023-01-08T16:20:03.437Z,88.14
2023-01-08T16:22:24.931Z,87.70
2023-01-08T16:24:46.373Z,87.87
2023-01-08T16:27:09.892Z,88.54
2023-01-08T16:29:31.312Z,88.99
2023-01-08T16:31:52.827Z,89.61
2023-01-08T16:34:15.520Z,89.53
2023-01-08T16:36:36.935Z,89.69
2023-01-08T16:38:58.377Z,90.36
2023-01-08T16:41:19.784Z,90.02
2023-01-08T16:43:41.719Z,90.37
2023-01-08T16:46:04.313Z,91.06
2023-01-08T16:48:25.787Z,91.77
2023-01-08T16:50:47.724Z,92.47
2023-01-08T16:53:09.951Z,92.57
2023-01-08T16:55:31.402Z,93.08
2023-01-08T16:57:55.333Z,92.71
2023-01-08T17:00:17.381Z,92.18
2023-01-08T17:02:39.008Z,91.70
2023-01-08T17:05:00.684Z,92.45
2023-01-08T17:07:22.140Z,91.98
2023-01-08T17:09:43.626Z,91.90
2023-01-08T17:12:05.377Z,92.87
2023-01-08T17:14:26.828Z,93.48
2023-01-08T17:16:49.224Z,96.31
2023-01-08T17:19:12.475Z,95.77
2023-01-08T17:21:33.957Z,96.74
2023-01-08T17:23:55.375Z,97.15
2023-01-08T17:26:20.363Z,97.23
2023-01-08T17:28:41.761Z,98.61
2023-01-08T17:31:05.704Z,99.17
2023-01-08T17:33:27.276Z,98.94
2023-01-08T17:35:48.782Z,98.40
2023-01-08T17:38:10.831Z,99.31
2023-01-08T17:40:32.262Z,99.71
2023-01-08T17:42:55.064Z,99.42
2023-01-08T17:45:17.397Z,99.52
2023-01-08T17:47:39.265Z,99.99
2023-01-08T17:50:02.248Z,100.00
2023-01-08T17:52:25.272Z,100.00
2023-01-08T17:54:50.704Z,100.00
2023-01-08T17:57:12.147Z,100.00
2023-01-08T17:59:33.986Z,99.16
2023-01-08T18:01:55.518Z,97.63
2023-01-08T18:04:17.709Z,98.02
2023-01-08T18:06:39.258Z,97.16
2023-01-08T18:09:00.670Z,97.07
2023-01-08T18:11:22.385Z,96.78
2023-01-08T18:13:43.930Z,96.82
2023-01-08T18:16:08.041Z,96.89
2023-01-08T18:18:29.922Z,98.00
2023-01-08T18:20:54.269Z,96.09
2023-01-08T18:23:15.696Z,95.50
2023-01-08T18:25:41.343Z,95.25
2023-01-08T18:28:02.741Z,95.85
2023-01-08T18:30:24.183Z,95.65
2023-01-08T18:32:45.565Z,95.19
2023-01-08T18:35:07.283Z,95.86
2023-01-08T18:37:28.733Z,95.81
2023-01-08T18:39:50.169Z,95.37
2023-01-08T18:42:26.806Z,95.78
2023-01-08T18:44:48.452Z,95.42
2023-01-08T18:47:12.457Z,95.34
2023-01-08T18:49:33.968Z,94.49
2023-01-08T18:51:55.458Z,94.69
2023-01-08T18:54:16.945Z,94.43
2023-01-08T18:56:38.770Z,94.38
2023-01-08T18:59:00.872Z,93.84
2023-01-08T19:01:22.846Z,93.97
2023-01-08T19:03:44.316Z,93.12
2023-01-08T19:06:14.852Z,93.41
2023-01-08T19:08:36.299Z,92.35
2023-01-08T19:10:57.734Z,91.51
2023-01-08T19:13:19.276Z,91.88
2023-01-08T19:15:40.746Z,91.28
2023-01-08T19:18:04.825Z,90.39
2023-01-08T19:20:27.145Z,90.49
2023-01-08T19:22:48.640Z,90.19
2023-01-08T19:25:10.486Z,89.53
2023-01-08T19:27:34.598Z,90.85
2023-01-08T19:29:56.451Z,91.47
2023-01-08T19:32:18.010Z,91.00
2023-01-08T19:34:39.476Z,91.24
2023-01-08T19:37:01.199Z,90.93
2023-01-08T19:39:22.778Z,90.91
2023-01-08T19:42:02.616Z,91.52
2023-01-08T19:44:24.277Z,92.99
2023-01-08T19:46:45.744Z,93.43
2023-01-08T19:49:07.234Z,93.14
2023-01-08T19:51:32.386Z,91.99
2023-01-08T19:53:55.142Z,92.66
2023-01-08T19:56:16.977Z,92.46
2023-01-08T19:58:38.811Z,93.44
2023-01-08T20:01:05.673Z,93.70
2023-01-08T20:03:28.228Z,93.47
2023-01-08T20:05:49.716Z,94.06
2023-01-08T20:08:11.161Z,93.40
2023-01-08T20:10:32.607Z,95.06
2023-01-08T20:12:54.033Z,95.30
2023-01-08T20:15:17.504Z,95.59
2023-01-08T20:17:42.569Z,95.54
2023-01-08T20:20:04.403Z,95.76
2023-01-08T20:22:27.668Z,96.02
2023-01-08T20:24:50.594Z,96.76
2023-01-08T20:27:12.011Z,96.93
2023-01-08T20:29:33.576Z,96.83
2023-01-08T20:31:57.475Z,96.54
2023-01-08T20:34:18.923Z,97.05
2023-01-08T20:36:40.396Z,97.46
2023-01-08T20:39:09.015Z,97.65
2023-01-08T20:41:30.602Z,96.98
2023-01-08T20:43:52.923Z,96.71
2023-01-08T20:46:14.841Z,97.21
2023-01-08T20:48:42.979Z,96.89
2023-01-08T20:51:12.371Z,96.43
2023-01-08T20:53:36.026Z,97.08
2023-01-08T20:56:01.925Z,97.67
2023-01-08T20:58:23.430Z,96.93
2023-01-08T21:00:45.049Z,97.14
2023-01-08T21:03:06.470Z,96.24
2023-01-08T21:05:27.992Z,95.38
2023-01-08T21:07:49.477Z,94.97
2023-01-08T21:10:12.016Z,94.51
2023-01-08T21:12:35.666Z,94.77
2023-01-08T21:14:57.080Z,95.35
2023-01-08T21:17:18.502Z,94.47
2023-01-08T21:19:39.974Z,94.76
2023-01-08T21:22:01.392Z,94.49
2023-01-08T21:24:22.898Z,94.40
2023-01-08T21:26:45.482Z,94.98
2023-01-08T21:29:08.915Z,94.54
2023-01-08T21:31:30.489Z,93.73
2023-01-08T21:33:53.011Z,94.21
2023-01-08T21:36:20.723Z,94.17
2023-01-08T21:38:42.203Z,94.07
2023-01-08T21:41:06.464Z,94.69
2023-01-08T21:43:47.468Z,95.35
2023-01-08T21:46:09.035Z,95.04
2023-01-08T21:48:30.557Z,94.71
2023-01-08T21:50:51.986Z,94.72
2023-01-08T21:53:31.853Z,94.38
2023-01-08T21:55:53.341Z,94.33
2023-01-08T21:58:14.761Z,94.44
2023-01-08T22:00:37.273Z,93.60
2023-01-08T22:02:59.009Z,94.80
2023-01-08T22:05:20.456Z,95.70
2023-01-08T22:07:41.868Z,95.98
2023-01-08T22:10:05.388Z,95.51
2023-01-08T22:12:27.347Z,95.40
2023-01-08T22:14:49.408Z,95.27
2023-01-08T22:17:10.959Z,95.22
2023-01-08T22:19:32.395Z,95.89
2023-01-08T22:21:54.863Z,96.17
2023-01-08T22:24:16.340Z,95.62
2023-01-08T22:26:37.891Z,95.50
2023-01-08T22:28:59.303Z,95.76
2023-01-08T22:31:20.824Z,95.32
2023-01-08T22:33:42.411Z,94.43
2023-01-08T22:36:05.044Z,94.73
2023-01-08T22:38:26.469Z,94.96
2023-01-08T22:40:47.884Z,95.81
2023-01-08T22:43:09.327Z,96.52
2023-01-08T22:45:31.138Z,96.62
2023-01-08T22:47:52.554Z,96.19
2023-01-08T22:50:14.007Z,95.80
2023-01-08T22:52:35.398Z,95.67
2023-01-08T22:54:58.161Z,95.69
2023-01-08T22:57:19.599Z,96.13
2023-01-08T22:59:41.040Z,96.95
2023-01-08T23:02:02.434Z,96.67
2023-01-08T23:04:23.931Z,96.14
2023-01-08T23:06:45.337Z,97.44
2023-01-08T23:09:06.920Z,98.03
2023-01-08T23:11:28.473Z,98.60
2023-01-08T23:13:53.117Z,97.77
2023-01-08T23:16:17.117Z,97.26
2023-01-08T23:18:39.191Z,97.98
2023-01-08T23:21:11.936Z,97.28
2023-01-08T23:23:33.703Z,97.95
2023-01-08T23:25:55.105Z,97.92
2023-01-08T23:28:16.539Z,97.46
2023-01-08T23:30:40.597Z,96.97
2023-01-08T23:33:02.034Z,97.03
2023-01-08T23:35:23.930Z,95.94
2023-01-08T23:37:45.324Z,95.86
2023-01-08T23:40:07.265Z,94.55
2023-01-08T23:42:29.977Z,94.09
2023-01-08T23:44:51.408Z,93.63
2023-01-08T23:47:12.805Z,94.02
2023-01-08T23:49:34.675Z,95.09
2023-01-08T23:51:56.152Z,94.53
2023-01-08T23:54:17.708Z,95.59
2023-01-08T23:56:40.965Z,96.24
2023-01-08T23:59:03.091Z,96.08
